sensor_id;sensor_type;location;lat;lon;timestamp;P1;durP1;ratioP1;P2;durP2;ratioP2
85646;SDS011;76070;51.580;4.342;2024-03-07T00:00:21;125.30;;;37.78;;
85646;SDS011;76070;51.580;4.342;2024-03-07T00:02:48;115.82;;;36.33;;
85646;SDS011;76070;51.580;4.342;2024-03-07T00:05:15;122.17;;;36.98;;
85646;SDS011;76070;51.580;4.342;2024-03-07T00:07:42;117.93;;;34.05;;
85646;SDS011;76070;51.580;4.342;2024-03-07T00:10:08;115.32;;;33.58;;
85646;SDS011;76070;51.580;4.342;2024-03-07T00:12:36;133.87;;;37.75;;
85646;SDS011;76070;51.580;4.342;2024-03-07T00:15:04;119.33;;;33.70;;
85646;SDS011;76070;51.580;4.342;2024-03-07T00:17:31;129.05;;;36.42;;
85646;SDS011;76070;51.580;4.342;2024-03-07T00:19:58;109.78;;;33.80;;
85646;SDS011;76070;51.580;4.342;2024-03-07T00:22:24;132.20;;;35.48;;
85646;SDS011;76070;51.580;4.342;2024-03-07T00:24:52;124.47;;;33.83;;
85646;SDS011;76070;51.580;4.342;2024-03-07T00:27:19;131.85;;;38.00;;
85646;SDS011;76070;51.580;4.342;2024-03-07T00:29:47;140.15;;;36.35;;
85646;SDS011;76070;51.580;4.342;2024-03-07T00:32:15;148.40;;;39.00;;
85646;SDS011;76070;51.580;4.342;2024-03-07T00:34:43;143.95;;;38.75;;
85646;SDS011;76070;51.580;4.342;2024-03-07T00:37:10;159.48;;;40.83;;
85646;SDS011;76070;51.580;4.342;2024-03-07T00:39:36;151.65;;;41.08;;
85646;SDS011;76070;51.580;4.342;2024-03-07T00:42:03;174.18;;;41.02;;
85646;SDS011;76070;51.580;4.342;2024-03-07T00:44:29;160.72;;;43.55;;
85646;SDS011;76070;51.580;4.342;2024-03-07T00:46:56;173.40;;;41.02;;
85646;SDS011;76070;51.580;4.342;2024-03-07T00:49:36;160.07;;;40.73;;
85646;SDS011;76070;51.580;4.342;2024-03-07T00:52:02;158.35;;;40.40;;
85646;SDS011;76070;51.580;4.342;2024-03-07T00:54:29;141.07;;;39.75;;
85646;SDS011;76070;51.580;4.342;2024-03-07T00:56:55;157.62;;;40.70;;
85646;SDS011;76070;51.580;4.342;2024-03-07T00:59:22;138.35;;;39.30;;
85646;SDS011;76070;51.580;4.342;2024-03-07T01:01:48;123.62;;;35.73;;
85646;SDS011;76070;51.580;4.342;2024-03-07T01:04:15;120.02;;;35.05;;
85646;SDS011;76070;51.580;4.342;2024-03-07T01:06:41;104.43;;;35.70;;
85646;SDS011;76070;51.580;4.342;2024-03-07T01:09:08;91.53;;;32.65;;
85646;SDS011;76070;51.580;4.342;2024-03-07T01:11:36;115.03;;;34.10;;
85646;SDS011;76070;51.580;4.342;2024-03-07T01:14:02;108.42;;;34.35;;
85646;SDS011;76070;51.580;4.342;2024-03-07T01:16:29;101.87;;;33.25;;
85646;SDS011;76070;51.580;4.342;2024-03-07T01:18:55;106.67;;;36.15;;
85646;SDS011;76070;51.580;4.342;2024-03-07T01:21:22;103.92;;;35.70;;
85646;SDS011;76070;51.580;4.342;2024-03-07T01:23:49;115.52;;;36.90;;
85646;SDS011;76070;51.580;4.342;2024-03-07T01:26:16;125.85;;;37.55;;
85646;SDS011;76070;51.580;4.342;2024-03-07T01:28:43;101.35;;;33.92;;
85646;SDS011;76070;51.580;4.342;2024-03-07T01:31:09;97.12;;;30.72;;
85646;SDS011;76070;51.580;4.342;2024-03-07T01:33:36;116.50;;;34.25;;
85646;SDS011;76070;51.580;4.342;2024-03-07T01:36:02;116.70;;;36.98;;
85646;SDS011;76070;51.580;4.342;2024-03-07T01:38:30;111.03;;;33.40;;
85646;SDS011;76070;51.580;4.342;2024-03-07T01:40:57;112.68;;;36.75;;
85646;SDS011;76070;51.580;4.342;2024-03-07T01:43:23;123.35;;;36.08;;
85646;SDS011;76070;51.580;4.342;2024-03-07T01:45:50;133.35;;;39.65;;
85646;SDS011;76070;51.580;4.342;2024-03-07T01:48:20;142.70;;;37.23;;
85646;SDS011;76070;51.580;4.342;2024-03-07T01:50:46;132.95;;;36.77;;
85646;SDS011;76070;51.580;4.342;2024-03-07T01:53:13;117.22;;;34.00;;
85646;SDS011;76070;51.580;4.342;2024-03-07T01:55:40;129.05;;;37.85;;
85646;SDS011;76070;51.580;4.342;2024-03-07T01:58:06;120.97;;;37.28;;
85646;SDS011;76070;51.580;4.342;2024-03-07T02:00:35;115.80;;;36.65;;
85646;SDS011;76070;51.580;4.342;2024-03-07T02:03:02;109.17;;;35.33;;
85646;SDS011;76070;51.580;4.342;2024-03-07T02:05:28;120.50;;;39.05;;
85646;SDS011;76070;51.580;4.342;2024-03-07T02:07:55;106.58;;;34.25;;
85646;SDS011;76070;51.580;4.342;2024-03-07T02:10:21;118.82;;;37.13;;
85646;SDS011;76070;51.580;4.342;2024-03-07T02:12:48;106.12;;;34.13;;
85646;SDS011;76070;51.580;4.342;2024-03-07T02:15:14;117.50;;;35.85;;
85646;SDS011;76070;51.580;4.342;2024-03-07T02:17:42;83.52;;;31.90;;
85646;SDS011;76070;51.580;4.342;2024-03-07T02:20:09;98.58;;;35.15;;
85646;SDS011;76070;51.580;4.342;2024-03-07T02:22:36;105.27;;;34.03;;
85646;SDS011;76070;51.580;4.342;2024-03-07T02:25:03;112.60;;;36.15;;
85646;SDS011;76070;51.580;4.342;2024-03-07T02:27:30;102.27;;;36.70;;
85646;SDS011;76070;51.580;4.342;2024-03-07T02:29:56;100.25;;;34.63;;
85646;SDS011;76070;51.580;4.342;2024-03-07T02:32:29;105.60;;;33.90;;
85646;SDS011;76070;51.580;4.342;2024-03-07T02:34:55;109.65;;;35.92;;
85646;SDS011;76070;51.580;4.342;2024-03-07T02:37:22;117.08;;;37.40;;
85646;SDS011;76070;51.580;4.342;2024-03-07T02:39:48;100.95;;;32.85;;
85646;SDS011;76070;51.580;4.342;2024-03-07T02:42:15;106.85;;;34.03;;
85646;SDS011;76070;51.580;4.342;2024-03-07T02:44:41;105.43;;;35.73;;
85646;SDS011;76070;51.580;4.342;2024-03-07T02:47:08;109.92;;;33.83;;
85646;SDS011;76070;51.580;4.342;2024-03-07T02:49:34;105.35;;;34.43;;
85646;SDS011;76070;51.580;4.342;2024-03-07T02:52:01;110.60;;;35.00;;
85646;SDS011;76070;51.580;4.342;2024-03-07T02:54:27;104.10;;;35.28;;
85646;SDS011;76070;51.580;4.342;2024-03-07T02:56:54;102.35;;;36.30;;
85646;SDS011;76070;51.580;4.342;2024-03-07T02:59:20;123.38;;;39.08;;
85646;SDS011;76070;51.580;4.342;2024-03-07T03:01:47;118.08;;;35.80;;
85646;SDS011;76070;51.580;4.342;2024-03-07T03:04:13;119.00;;;36.70;;
85646;SDS011;76070;51.580;4.342;2024-03-07T03:06:40;125.95;;;37.35;;
85646;SDS011;76070;51.580;4.342;2024-03-07T03:09:06;128.65;;;39.73;;
85646;SDS011;76070;51.580;4.342;2024-03-07T03:11:35;125.47;;;37.13;;
85646;SDS011;76070;51.580;4.342;2024-03-07T03:14:01;138.52;;;39.38;;
85646;SDS011;76070;51.580;4.342;2024-03-07T03:16:29;132.40;;;39.42;;
85646;SDS011;76070;51.580;4.342;2024-03-07T03:18:57;132.52;;;35.60;;
85646;SDS011;76070;51.580;4.342;2024-03-07T03:21:23;130.85;;;37.63;;
85646;SDS011;76070;51.580;4.342;2024-03-07T03:23:50;128.32;;;36.40;;
85646;SDS011;76070;51.580;4.342;2024-03-07T03:26:18;164.82;;;43.60;;
85646;SDS011;76070;51.580;4.342;2024-03-07T03:28:45;148.30;;;42.70;;
85646;SDS011;76070;51.580;4.342;2024-03-07T03:31:12;158.90;;;43.17;;
85646;SDS011;76070;51.580;4.342;2024-03-07T03:33:39;171.77;;;45.60;;
85646;SDS011;76070;51.580;4.342;2024-03-07T03:36:06;178.07;;;44.15;;
85646;SDS011;76070;51.580;4.342;2024-03-07T03:38:33;174.68;;;46.77;;
85646;SDS011;76070;51.580;4.342;2024-03-07T03:41:00;147.53;;;41.45;;
85646;SDS011;76070;51.580;4.342;2024-03-07T03:43:27;153.53;;;39.78;;
85646;SDS011;76070;51.580;4.342;2024-03-07T03:45:53;143.28;;;39.33;;
85646;SDS011;76070;51.580;4.342;2024-03-07T03:48:20;136.25;;;39.30;;
85646;SDS011;76070;51.580;4.342;2024-03-07T03:50:46;144.05;;;38.45;;
85646;SDS011;76070;51.580;4.342;2024-03-07T03:53:13;127.20;;;39.55;;
85646;SDS011;76070;51.580;4.342;2024-03-07T03:55:39;120.30;;;38.58;;
85646;SDS011;76070;51.580;4.342;2024-03-07T03:58:06;127.07;;;36.40;;
85646;SDS011;76070;51.580;4.342;2024-03-07T04:00:32;124.15;;;38.30;;
85646;SDS011;76070;51.580;4.342;2024-03-07T04:02:59;122.47;;;36.83;;
85646;SDS011;76070;51.580;4.342;2024-03-07T04:05:25;129.07;;;37.13;;
85646;SDS011;76070;51.580;4.342;2024-03-07T04:07:52;131.30;;;39.15;;
85646;SDS011;76070;51.580;4.342;2024-03-07T04:10:18;132.18;;;39.92;;
85646;SDS011;76070;51.580;4.342;2024-03-07T04:12:45;133.93;;;42.15;;
85646;SDS011;76070;51.580;4.342;2024-03-07T04:15:12;133.95;;;37.15;;
85646;SDS011;76070;51.580;4.342;2024-03-07T04:17:42;106.67;;;36.98;;
85646;SDS011;76070;51.580;4.342;2024-03-07T04:20:10;120.00;;;39.90;;
85646;SDS011;76070;51.580;4.342;2024-03-07T04:22:38;106.35;;;36.53;;
85646;SDS011;76070;51.580;4.342;2024-03-07T04:25:05;117.87;;;37.88;;
85646;SDS011;76070;51.580;4.342;2024-03-07T04:27:32;133.43;;;40.25;;
85646;SDS011;76070;51.580;4.342;2024-03-07T04:30:01;139.50;;;40.03;;
85646;SDS011;76070;51.580;4.342;2024-03-07T04:32:29;104.03;;;39.30;;
85646;SDS011;76070;51.580;4.342;2024-03-07T04:34:55;114.37;;;36.42;;
85646;SDS011;76070;51.580;4.342;2024-03-07T04:37:26;115.15;;;37.83;;
85646;SDS011;76070;51.580;4.342;2024-03-07T04:39:55;126.07;;;39.23;;
85646;SDS011;76070;51.580;4.342;2024-03-07T04:42:21;114.50;;;40.55;;
85646;SDS011;76070;51.580;4.342;2024-03-07T04:44:48;128.50;;;39.30;;
85646;SDS011;76070;51.580;4.342;2024-03-07T04:47:14;122.17;;;40.60;;
85646;SDS011;76070;51.580;4.342;2024-03-07T04:52:38;116.57;;;37.30;;
85646;SDS011;76070;51.580;4.342;2024-03-07T04:55:08;131.03;;;39.53;;
85646;SDS011;76070;51.580;4.342;2024-03-07T04:57:37;121.50;;;38.70;;
85646;SDS011;76070;51.580;4.342;2024-03-07T05:00:11;114.08;;;40.63;;
85646;SDS011;76070;51.580;4.342;2024-03-07T05:02:43;117.82;;;38.02;;
85646;SDS011;76070;51.580;4.342;2024-03-07T05:05:10;144.13;;;40.05;;
85646;SDS011;76070;51.580;4.342;2024-03-07T05:07:38;134.07;;;38.90;;
85646;SDS011;76070;51.580;4.342;2024-03-07T05:10:05;128.45;;;41.60;;
85646;SDS011;76070;51.580;4.342;2024-03-07T05:12:33;120.22;;;38.78;;
85646;SDS011;76070;51.580;4.342;2024-03-07T05:15:00;123.87;;;39.48;;
85646;SDS011;76070;51.580;4.342;2024-03-07T05:17:28;131.82;;;41.13;;
85646;SDS011;76070;51.580;4.342;2024-03-07T05:19:55;134.43;;;41.00;;
85646;SDS011;76070;51.580;4.342;2024-03-07T05:22:21;110.90;;;38.83;;
85646;SDS011;76070;51.580;4.342;2024-03-07T05:24:49;132.93;;;41.85;;
85646;SDS011;76070;51.580;4.342;2024-03-07T05:27:16;120.50;;;38.90;;
85646;SDS011;76070;51.580;4.342;2024-03-07T05:29:43;137.30;;;39.65;;
85646;SDS011;76070;51.580;4.342;2024-03-07T05:32:22;117.22;;;37.10;;
85646;SDS011;76070;51.580;4.342;2024-03-07T05:34:49;131.75;;;42.25;;
85646;SDS011;76070;51.580;4.342;2024-03-07T05:37:16;119.70;;;39.03;;
85646;SDS011;76070;51.580;4.342;2024-03-07T05:39:43;122.45;;;44.08;;
85646;SDS011;76070;51.580;4.342;2024-03-07T05:42:10;128.45;;;40.85;;
85646;SDS011;76070;51.580;4.342;2024-03-07T05:44:38;123.62;;;42.23;;
85646;SDS011;76070;51.580;4.342;2024-03-07T05:47:05;108.15;;;38.67;;
85646;SDS011;76070;51.580;4.342;2024-03-07T05:49:33;117.67;;;40.03;;
85646;SDS011;76070;51.580;4.342;2024-03-07T05:51:59;98.15;;;37.80;;
85646;SDS011;76070;51.580;4.342;2024-03-07T05:54:26;116.05;;;38.17;;
85646;SDS011;76070;51.580;4.342;2024-03-07T05:56:54;109.12;;;37.42;;
85646;SDS011;76070;51.580;4.342;2024-03-07T05:59:20;106.85;;;35.68;;
85646;SDS011;76070;51.580;4.342;2024-03-07T06:01:47;111.95;;;39.38;;
85646;SDS011;76070;51.580;4.342;2024-03-07T06:04:16;106.40;;;37.50;;
85646;SDS011;76070;51.580;4.342;2024-03-07T06:06:42;97.17;;;38.38;;
85646;SDS011;76070;51.580;4.342;2024-03-07T06:09:10;90.12;;;36.65;;
85646;SDS011;76070;51.580;4.342;2024-03-07T06:11:38;102.78;;;37.83;;
85646;SDS011;76070;51.580;4.342;2024-03-07T06:14:07;92.33;;;36.00;;
85646;SDS011;76070;51.580;4.342;2024-03-07T06:16:37;88.45;;;35.70;;
85646;SDS011;76070;51.580;4.342;2024-03-07T06:19:04;98.33;;;35.30;;
85646;SDS011;76070;51.580;4.342;2024-03-07T06:21:33;113.15;;;37.70;;
85646;SDS011;76070;51.580;4.342;2024-03-07T06:24:00;94.97;;;36.38;;
85646;SDS011;76070;51.580;4.342;2024-03-07T06:26:29;106.52;;;36.73;;
85646;SDS011;76070;51.580;4.342;2024-03-07T06:29:03;113.77;;;39.13;;
85646;SDS011;76070;51.580;4.342;2024-03-07T06:31:39;120.60;;;41.37;;
85646;SDS011;76070;51.580;4.342;2024-03-07T06:34:08;137.43;;;42.98;;
85646;SDS011;76070;51.580;4.342;2024-03-07T06:36:35;121.47;;;39.92;;
85646;SDS011;76070;51.580;4.342;2024-03-07T06:39:02;132.82;;;44.38;;
85646;SDS011;76070;51.580;4.342;2024-03-07T06:41:36;129.20;;;42.30;;
85646;SDS011;76070;51.580;4.342;2024-03-07T06:43:59;123.80;;;40.58;;
85646;SDS011;76070;51.580;4.342;2024-03-07T06:46:26;120.05;;;40.80;;
85646;SDS011;76070;51.580;4.342;2024-03-07T06:48:53;131.80;;;41.98;;
85646;SDS011;76070;51.580;4.342;2024-03-07T06:51:19;127.75;;;40.90;;
85646;SDS011;76070;51.580;4.342;2024-03-07T06:53:46;111.45;;;41.25;;
85646;SDS011;76070;51.580;4.342;2024-03-07T06:56:13;107.25;;;38.10;;
85646;SDS011;76070;51.580;4.342;2024-03-07T06:58:39;118.13;;;39.27;;
85646;SDS011;76070;51.580;4.342;2024-03-07T07:01:08;113.65;;;39.45;;
85646;SDS011;76070;51.580;4.342;2024-03-07T07:03:36;108.27;;;38.17;;
85646;SDS011;76070;51.580;4.342;2024-03-07T07:06:03;118.93;;;39.73;;
85646;SDS011;76070;51.580;4.342;2024-03-07T07:08:32;115.80;;;40.30;;
85646;SDS011;76070;51.580;4.342;2024-03-07T07:10:58;120.00;;;40.43;;
85646;SDS011;76070;51.580;4.342;2024-03-07T07:13:25;124.33;;;38.58;;
85646;SDS011;76070;51.580;4.342;2024-03-07T07:15:52;121.62;;;40.58;;
85646;SDS011;76070;51.580;4.342;2024-03-07T07:18:19;131.03;;;42.65;;
85646;SDS011;76070;51.580;4.342;2024-03-07T07:20:47;134.47;;;40.90;;
85646;SDS011;76070;51.580;4.342;2024-03-07T07:23:13;119.40;;;43.15;;
85646;SDS011;76070;51.580;4.342;2024-03-07T07:25:40;136.12;;;43.15;;
85646;SDS011;76070;51.580;4.342;2024-03-07T07:28:06;144.00;;;46.85;;
85646;SDS011;76070;51.580;4.342;2024-03-07T07:30:33;128.53;;;41.40;;
85646;SDS011;76070;51.580;4.342;2024-03-07T07:33:00;145.65;;;44.67;;
85646;SDS011;76070;51.580;4.342;2024-03-07T07:35:26;125.05;;;42.43;;
85646;SDS011;76070;51.580;4.342;2024-03-07T07:37:53;132.93;;;43.13;;
85646;SDS011;76070;51.580;4.342;2024-03-07T07:40:21;117.00;;;41.02;;
85646;SDS011;76070;51.580;4.342;2024-03-07T07:42:49;121.70;;;42.60;;
85646;SDS011;76070;51.580;4.342;2024-03-07T07:45:17;128.02;;;42.10;;
85646;SDS011;76070;51.580;4.342;2024-03-07T07:47:45;133.50;;;43.33;;
85646;SDS011;76070;51.580;4.342;2024-03-07T07:56:17;113.40;;;42.58;;
85646;SDS011;76070;51.580;4.342;2024-03-07T07:58:44;121.10;;;43.55;;
85646;SDS011;76070;51.580;4.342;2024-03-07T08:01:11;126.97;;;43.60;;
85646;SDS011;76070;51.580;4.342;2024-03-07T08:03:39;140.15;;;45.08;;
85646;SDS011;76070;51.580;4.342;2024-03-07T08:06:06;133.35;;;44.77;;
85646;SDS011;76070;51.580;4.342;2024-03-07T08:08:33;134.45;;;45.92;;
85646;SDS011;76070;51.580;4.342;2024-03-07T08:10:59;125.75;;;45.45;;
85646;SDS011;76070;51.580;4.342;2024-03-07T08:13:26;125.12;;;45.25;;
85646;SDS011;76070;51.580;4.342;2024-03-07T08:15:53;127.35;;;43.75;;
85646;SDS011;76070;51.580;4.342;2024-03-07T08:18:20;120.45;;;45.67;;
85646;SDS011;76070;51.580;4.342;2024-03-07T08:20:46;140.90;;;45.35;;
85646;SDS011;76070;51.580;4.342;2024-03-07T08:23:13;115.67;;;43.15;;
85646;SDS011;76070;51.580;4.342;2024-03-07T08:25:39;119.82;;;44.30;;
85646;SDS011;76070;51.580;4.342;2024-03-07T08:28:06;112.95;;;42.45;;
85646;SDS011;76070;51.580;4.342;2024-03-07T08:30:35;123.90;;;44.15;;
85646;SDS011;76070;51.580;4.342;2024-03-07T08:33:01;105.72;;;40.17;;
85646;SDS011;76070;51.580;4.342;2024-03-07T08:35:29;100.15;;;39.85;;
85646;SDS011;76070;51.580;4.342;2024-03-07T08:37:56;100.38;;;40.85;;
85646;SDS011;76070;51.580;4.342;2024-03-07T08:40:23;109.50;;;38.63;;
85646;SDS011;76070;51.580;4.342;2024-03-07T08:42:50;83.55;;;37.45;;
85646;SDS011;76070;51.580;4.342;2024-03-07T08:45:20;84.97;;;36.17;;
85646;SDS011;76070;51.580;4.342;2024-03-07T08:47:48;89.65;;;37.80;;
85646;SDS011;76070;51.580;4.342;2024-03-07T08:50:14;72.87;;;35.25;;
85646;SDS011;76070;51.580;4.342;2024-03-07T08:52:43;68.02;;;34.43;;
85646;SDS011;76070;51.580;4.342;2024-03-07T08:55:12;69.70;;;30.97;;
85646;SDS011;76070;51.580;4.342;2024-03-07T08:57:40;71.37;;;31.00;;
85646;SDS011;76070;51.580;4.342;2024-03-07T09:00:07;77.25;;;33.95;;
85646;SDS011;76070;51.580;4.342;2024-03-07T09:02:38;61.42;;;29.77;;
85646;SDS011;76070;51.580;4.342;2024-03-07T09:05:05;59.30;;;26.77;;
85646;SDS011;76070;51.580;4.342;2024-03-07T09:07:32;58.30;;;27.82;;
85646;SDS011;76070;51.580;4.342;2024-03-07T09:09:58;60.45;;;28.70;;
85646;SDS011;76070;51.580;4.342;2024-03-07T09:12:25;51.28;;;27.32;;
85646;SDS011;76070;51.580;4.342;2024-03-07T09:14:52;50.98;;;27.65;;
85646;SDS011;76070;51.580;4.342;2024-03-07T09:17:19;58.90;;;25.37;;
85646;SDS011;76070;51.580;4.342;2024-03-07T09:19:46;46.25;;;24.60;;
85646;SDS011;76070;51.580;4.342;2024-03-07T09:22:12;49.27;;;24.52;;
85646;SDS011;76070;51.580;4.342;2024-03-07T09:24:39;55.78;;;25.15;;
85646;SDS011;76070;51.580;4.342;2024-03-07T09:27:06;51.60;;;23.52;;
85646;SDS011;76070;51.580;4.342;2024-03-07T09:29:33;47.60;;;22.93;;
85646;SDS011;76070;51.580;4.342;2024-03-07T09:32:00;45.50;;;22.87;;
85646;SDS011;76070;51.580;4.342;2024-03-07T09:34:27;40.35;;;21.40;;
85646;SDS011;76070;51.580;4.342;2024-03-07T09:36:56;40.85;;;21.82;;
85646;SDS011;76070;51.580;4.342;2024-03-07T09:39:24;45.65;;;23.30;;
85646;SDS011;76070;51.580;4.342;2024-03-07T09:41:52;46.58;;;22.37;;
85646;SDS011;76070;51.580;4.342;2024-03-07T09:44:20;37.15;;;20.97;;
85646;SDS011;76070;51.580;4.342;2024-03-07T09:46:54;39.73;;;19.75;;
85646;SDS011;76070;51.580;4.342;2024-03-07T09:49:23;33.70;;;19.10;;
85646;SDS011;76070;51.580;4.342;2024-03-07T09:51:50;38.25;;;20.90;;
85646;SDS011;76070;51.580;4.342;2024-03-07T09:54:20;35.20;;;18.67;;
85646;SDS011;76070;51.580;4.342;2024-03-07T09:56:53;37.35;;;20.60;;
85646;SDS011;76070;51.580;4.342;2024-03-07T09:59:20;39.13;;;19.60;;
85646;SDS011;76070;51.580;4.342;2024-03-07T10:01:50;33.15;;;18.48;;
85646;SDS011;76070;51.580;4.342;2024-03-07T10:04:18;37.10;;;19.42;;
85646;SDS011;76070;51.580;4.342;2024-03-07T10:06:45;39.95;;;19.95;;
85646;SDS011;76070;51.580;4.342;2024-03-07T10:09:12;31.50;;;17.52;;
85646;SDS011;76070;51.580;4.342;2024-03-07T10:11:43;28.00;;;16.73;;
85646;SDS011;76070;51.580;4.342;2024-03-07T10:14:07;31.37;;;16.57;;
85646;SDS011;76070;51.580;4.342;2024-03-07T10:16:34;29.10;;;16.93;;
85646;SDS011;76070;51.580;4.342;2024-03-07T10:19:03;31.27;;;16.80;;
85646;SDS011;76070;51.580;4.342;2024-03-07T10:21:28;28.12;;;14.45;;
85646;SDS011;76070;51.580;4.342;2024-03-07T10:24:09;27.50;;;15.63;;
85646;SDS011;76070;51.580;4.342;2024-03-07T10:26:34;26.70;;;14.85;;
85646;SDS011;76070;51.580;4.342;2024-03-07T10:29:00;27.82;;;14.28;;
85646;SDS011;76070;51.580;4.342;2024-03-07T10:31:29;26.00;;;13.88;;
85646;SDS011;76070;51.580;4.342;2024-03-07T10:34:00;29.72;;;16.15;;
85646;SDS011;76070;51.580;4.342;2024-03-07T10:36:23;32.23;;;15.63;;
85646;SDS011;76070;51.580;4.342;2024-03-07T10:38:50;26.95;;;14.00;;
85646;SDS011;76070;51.580;4.342;2024-03-07T10:41:19;31.45;;;15.50;;
85646;SDS011;76070;51.580;4.342;2024-03-07T10:43:45;27.70;;;15.50;;
85646;SDS011;76070;51.580;4.342;2024-03-07T10:46:14;29.95;;;14.20;;
85646;SDS011;76070;51.580;4.342;2024-03-07T10:48:42;29.70;;;16.23;;
85646;SDS011;76070;51.580;4.342;2024-03-07T10:51:14;28.17;;;14.43;;
85646;SDS011;76070;51.580;4.342;2024-03-07T11:01:25;24.05;;;14.78;;
85646;SDS011;76070;51.580;4.342;2024-03-07T11:03:52;27.25;;;15.30;;
85646;SDS011;76070;51.580;4.342;2024-03-07T11:06:20;27.58;;;15.50;;
85646;SDS011;76070;51.580;4.342;2024-03-07T11:08:47;25.37;;;14.05;;
85646;SDS011;76070;51.580;4.342;2024-03-07T11:11:14;25.77;;;15.83;;
85646;SDS011;76070;51.580;4.342;2024-03-07T11:13:41;25.77;;;15.23;;
85646;SDS011;76070;51.580;4.342;2024-03-07T11:16:09;29.65;;;15.38;;
85646;SDS011;76070;51.580;4.342;2024-03-07T11:18:36;28.23;;;16.27;;
85646;SDS011;76070;51.580;4.342;2024-03-07T11:21:02;32.73;;;16.32;;
85646;SDS011;76070;51.580;4.342;2024-03-07T11:23:30;30.70;;;16.75;;
85646;SDS011;76070;51.580;4.342;2024-03-07T11:26:02;34.80;;;19.07;;
85646;SDS011;76070;51.580;4.342;2024-03-07T11:28:39;25.05;;;15.32;;
85646;SDS011;76070;51.580;4.342;2024-03-07T11:31:25;27.62;;;15.80;;
85646;SDS011;76070;51.580;4.342;2024-03-07T11:34:11;29.27;;;15.53;;
85646;SDS011;76070;51.580;4.342;2024-03-07T11:36:47;26.77;;;15.18;;
85646;SDS011;76070;51.580;4.342;2024-03-07T11:41:57;30.90;;;16.32;;
85646;SDS011;76070;51.580;4.342;2024-03-07T11:44:23;29.70;;;15.15;;
85646;SDS011;76070;51.580;4.342;2024-03-07T11:46:50;26.23;;;15.28;;
85646;SDS011;76070;51.580;4.342;2024-03-07T11:49:16;26.95;;;16.67;;
85646;SDS011;76070;51.580;4.342;2024-03-07T11:51:44;26.85;;;15.55;;
85646;SDS011;76070;51.580;4.342;2024-03-07T11:54:12;25.10;;;14.78;;
85646;SDS011;76070;51.580;4.342;2024-03-07T11:56:40;24.40;;;13.22;;
85646;SDS011;76070;51.580;4.342;2024-03-07T11:59:06;23.22;;;13.80;;
85646;SDS011;76070;51.580;4.342;2024-03-07T12:01:33;20.92;;;13.08;;
85646;SDS011;76070;51.580;4.342;2024-03-07T12:04:01;19.62;;;12.20;;
85646;SDS011;76070;51.580;4.342;2024-03-07T12:06:29;21.45;;;12.75;;
85646;SDS011;76070;51.580;4.342;2024-03-07T12:08:56;24.60;;;13.53;;
85646;SDS011;76070;51.580;4.342;2024-03-07T12:11:24;22.48;;;13.10;;
85646;SDS011;76070;51.580;4.342;2024-03-07T12:13:51;23.55;;;13.15;;
85646;SDS011;76070;51.580;4.342;2024-03-07T12:16:18;21.55;;;12.95;;
85646;SDS011;76070;51.580;4.342;2024-03-07T12:18:44;19.95;;;12.00;;
85646;SDS011;76070;51.580;4.342;2024-03-07T12:21:11;20.85;;;13.18;;
85646;SDS011;76070;51.580;4.342;2024-03-07T12:23:38;24.80;;;12.53;;
85646;SDS011;76070;51.580;4.342;2024-03-07T12:26:05;21.82;;;13.30;;
85646;SDS011;76070;51.580;4.342;2024-03-07T12:28:32;21.45;;;13.25;;
85646;SDS011;76070;51.580;4.342;2024-03-07T12:31:03;23.40;;;13.03;;
85646;SDS011;76070;51.580;4.342;2024-03-07T12:33:30;21.27;;;12.73;;
85646;SDS011;76070;51.580;4.342;2024-03-07T12:36:01;26.27;;;14.10;;
85646;SDS011;76070;51.580;4.342;2024-03-07T12:41:31;23.50;;;13.18;;
85646;SDS011;76070;51.580;4.342;2024-03-07T12:43:58;20.40;;;13.78;;
85646;SDS011;76070;51.580;4.342;2024-03-07T12:46:24;18.55;;;12.07;;
85646;SDS011;76070;51.580;4.342;2024-03-07T12:48:52;19.52;;;12.05;;
85646;SDS011;76070;51.580;4.342;2024-03-07T12:51:21;26.02;;;13.48;;
85646;SDS011;76070;51.580;4.342;2024-03-07T12:53:48;26.02;;;13.48;;
85646;SDS011;76070;51.580;4.342;2024-03-07T12:56:14;24.87;;;12.82;;
85646;SDS011;76070;51.580;4.342;2024-03-07T12:58:44;25.90;;;13.78;;
85646;SDS011;76070;51.580;4.342;2024-03-07T13:01:10;27.73;;;12.35;;
85646;SDS011;76070;51.580;4.342;2024-03-07T13:03:38;22.87;;;12.50;;
85646;SDS011;76070;51.580;4.342;2024-03-07T13:06:05;26.30;;;14.07;;
85646;SDS011;76070;51.580;4.342;2024-03-07T13:08:31;26.73;;;15.68;;
85646;SDS011;76070;51.580;4.342;2024-03-07T13:10:58;25.72;;;14.80;;
85646;SDS011;76070;51.580;4.342;2024-03-07T13:13:25;25.43;;;14.83;;
85646;SDS011;76070;51.580;4.342;2024-03-07T13:15:51;23.27;;;14.25;;
85646;SDS011;76070;51.580;4.342;2024-03-07T13:18:20;27.05;;;15.38;;
85646;SDS011;76070;51.580;4.342;2024-03-07T13:20:46;24.20;;;14.60;;
85646;SDS011;76070;51.580;4.342;2024-03-07T13:23:13;25.02;;;14.45;;
85646;SDS011;76070;51.580;4.342;2024-03-07T13:25:40;26.10;;;15.45;;
85646;SDS011;76070;51.580;4.342;2024-03-07T13:28:08;28.05;;;15.98;;
85646;SDS011;76070;51.580;4.342;2024-03-07T13:30:36;27.58;;;15.15;;
85646;SDS011;76070;51.580;4.342;2024-03-07T13:33:03;30.12;;;15.83;;
85646;SDS011;76070;51.580;4.342;2024-03-07T13:35:31;24.90;;;14.45;;
85646;SDS011;76070;51.580;4.342;2024-03-07T13:37:57;25.70;;;14.80;;
85646;SDS011;76070;51.580;4.342;2024-03-07T13:40:24;27.30;;;16.17;;
85646;SDS011;76070;51.580;4.342;2024-03-07T13:42:51;25.75;;;14.30;;
85646;SDS011;76070;51.580;4.342;2024-03-07T13:45:20;27.20;;;17.23;;
85646;SDS011;76070;51.580;4.342;2024-03-07T13:47:48;27.22;;;13.75;;
85646;SDS011;76070;51.580;4.342;2024-03-07T13:50:17;27.82;;;16.85;;
85646;SDS011;76070;51.580;4.342;2024-03-07T13:52:50;24.23;;;13.72;;
85646;SDS011;76070;51.580;4.342;2024-03-07T13:55:21;24.60;;;15.40;;
85646;SDS011;76070;51.580;4.342;2024-03-07T13:57:54;23.40;;;13.58;;
85646;SDS011;76070;51.580;4.342;2024-03-07T14:00:21;24.95;;;16.32;;
85646;SDS011;76070;51.580;4.342;2024-03-07T14:08:09;28.42;;;16.23;;
85646;SDS011;76070;51.580;4.342;2024-03-07T14:13:35;28.55;;;17.12;;
85646;SDS011;76070;51.580;4.342;2024-03-07T14:21:44;30.80;;;16.40;;
85646;SDS011;76070;51.580;4.342;2024-03-07T14:29:37;23.57;;;12.98;;
85646;SDS011;76070;51.580;4.342;2024-03-07T14:31:57;28.90;;;15.05;;
85646;SDS011;76070;51.580;4.342;2024-03-07T14:34:33;27.48;;;12.80;;
85646;SDS011;76070;51.580;4.342;2024-03-07T14:39:32;23.05;;;12.93;;
85646;SDS011;76070;51.580;4.342;2024-03-07T14:42:08;23.18;;;12.78;;
85646;SDS011;76070;51.580;4.342;2024-03-07T14:44:33;26.20;;;12.78;;
85646;SDS011;76070;51.580;4.342;2024-03-07T14:47:03;22.95;;;13.22;;
85646;SDS011;76070;51.580;4.342;2024-03-07T14:49:35;26.05;;;13.53;;
85646;SDS011;76070;51.580;4.342;2024-03-07T14:52:02;21.10;;;12.47;;
85646;SDS011;76070;51.580;4.342;2024-03-07T14:54:29;26.90;;;14.45;;
85646;SDS011;76070;51.580;4.342;2024-03-07T14:56:56;22.82;;;13.62;;
85646;SDS011;76070;51.580;4.342;2024-03-07T14:59:23;21.93;;;13.10;;